Time;durP1;ratioP1;P1;durP2;ratioP2;P2;SDS_P1;SDS_P2;PMS_P1;PMS_P2;Temp;Humidity;BMP_temperature;BMP_pressure;BME280_temperature;BME280_humidity;BME280_pressure;Samples;Min_cycle;Max_cycle;Signal;HPM_P1;HPM_P2
2020/12/26 00:02:30;;;;;;;7.00;6.30;;;0.80;99.90;;;;;;5095001;28;20790;-64
2020/12/26 00:05:15;;;;;;;7.20;6.27;;;0.80;99.90;;;;;;5073640;28;20735;-65
2020/12/26 00:07:59;;;;;;;9.03;6.00;;;0.80;99.90;;;;;;5071791;28;20617;-65
2020/12/26 00:10:44;;;;;;;6.90;6.20;;;0.90;99.90;;;;;;5076025;28;20576;-65
2020/12/26 00:13:28;;;;;;;7.50;6.80;;;0.90;99.90;;;;;;5080296;28;20604;-65
2020/12/26 00:16:13;;;;;;;7.90;7.10;;;0.80;99.90;;;;;;5091408;28;20655;-65
2020/12/26 00:18:58;;;;;;;7.40;6.70;;;0.80;99.90;;;;;;5081883;28;20604;-65
2020/12/26 00:21:42;;;;;;;7.70;6.90;;;0.90;99.90;;;;;;5062171;28;20652;-65
2020/12/26 00:24:26;;;;;;;8.70;7.90;;;0.90;99.90;;;;;;5071319;28;20799;-65
2020/12/26 00:27:11;;;;;;;8.67;7.77;;;0.90;99.90;;;;;;5059638;28;20629;-65
2020/12/26 00:29:55;;;;;;;7.77;7.07;;;0.90;99.90;;;;;;5061530;28;20632;-65
2020/12/26 00:32:40;;;;;;;8.23;7.33;;;0.90;99.90;;;;;;5070628;28;20643;-65
2020/12/26 00:35:25;;;;;;;12.33;8.73;;;0.90;99.90;;;;;;5076883;28;20659;-65
2020/12/26 00:38:09;;;;;;;10.17;8.13;;;0.90;99.90;;;;;;5071832;28;20600;-65
2020/12/26 00:40:54;;;;;;;10.77;9.70;;;0.90;99.90;;;;;;5056769;28;21155;-65
2020/12/26 00:43:38;;;;;;;12.50;10.50;;;0.90;99.90;;;;;;5068062;28;21209;-65
2020/12/26 00:46:23;;;;;;;11.27;10.17;;;1.00;99.90;;;;;;5071525;28;20588;-65
2020/12/26 00:49:09;;;;;;;16.13;10.90;;;1.00;99.90;;;;;;5051009;28;20654;-65
2020/12/26 00:51:53;;;;;;;13.17;11.60;;;1.10;99.90;;;;;;5069583;28;20648;-65
2020/12/26 00:54:40;;;;;;;14.97;12.00;;;1.10;99.90;;;;;;5054181;28;20647;-65
2020/12/26 00:57:24;;;;;;;12.47;11.27;;;1.10;99.90;;;;;;5061028;28;21027;-65
2020/12/26 01:00:13;;;;;;;14.40;12.87;;;1.10;99.90;;;;;;5070579;28;20605;-65
2020/12/26 01:02:57;;;;;;;14.57;13.00;;;1.10;99.90;;;;;;5051344;28;20656;-65
2020/12/26 01:05:43;;;;;;;15.33;13.73;;;1.20;99.90;;;;;;5068282;28;20709;-65
2020/12/26 01:08:27;;;;;;;15.97;14.03;;;1.30;99.90;;;;;;5056459;28;20953;-65
2020/12/26 01:11:12;;;;;;;15.57;13.93;;;1.40;99.90;;;;;;5062826;28;20759;-65
2020/12/26 01:13:57;;;;;;;17.93;15.40;;;1.40;99.90;;;;;;5065503;28;20665;-65
2020/12/26 01:16:42;;;;;;;16.57;13.83;;;1.50;99.90;;;;;;5062287;28;21265;-66
2020/12/26 01:19:29;;;;;;;19.40;15.10;;;1.60;99.90;;;;;;5071448;28;21209;-65
2020/12/26 01:22:14;;;;;;;17.17;14.77;;;1.50;99.90;;;;;;5067604;28;20632;-65
2020/12/26 01:24:59;;;;;;;17.00;15.30;;;1.50;99.90;;;;;;5072860;28;21090;-65
2020/12/26 01:27:43;;;;;;;17.63;14.33;;;1.50;99.90;;;;;;5077382;28;20600;-65
2020/12/26 01:30:27;;;;;;;18.70;14.27;;;1.50;99.90;;;;;;5063956;28;21320;-65
2020/12/26 01:33:12;;;;;;;16.07;14.40;;;1.50;99.90;;;;;;5073162;28;20631;-65
2020/12/26 01:35:59;;;;;;;19.80;16.03;;;1.50;99.90;;;;;;5057562;28;20690;-65
2020/12/26 01:38:47;;;;;;;16.17;14.50;;;1.50;99.90;;;;;;5076858;28;20647;-65
2020/12/26 01:41:31;;;;;;;15.50;13.87;;;1.40;99.90;;;;;;5045401;28;20837;-65
2020/12/26 01:44:16;;;;;;;19.13;15.60;;;1.40;99.90;;;;;;5059754;28;20643;-65
2020/12/26 01:47:01;;;;;;;21.30;15.63;;;1.40;99.90;;;;;;5064431;28;20601;-65
2020/12/26 01:49:46;;;;;;;16.53;14.80;;;1.50;99.90;;;;;;5065314;28;20630;-65
2020/12/26 01:52:31;;;;;;;16.60;14.37;;;1.50;99.90;;;;;;5088073;28;20701;-65
2020/12/26 01:55:16;;;;;;;17.37;15.30;;;1.50;99.90;;;;;;5075171;28;20781;-65
2020/12/26 01:58:04;;;;;;;21.80;16.50;;;1.60;99.90;;;;;;5065852;28;20603;-65
2020/12/26 02:00:49;;;;;;;17.37;14.63;;;1.60;99.90;;;;;;5065753;28;20596;-64
2020/12/26 02:03:33;;;;;;;20.40;16.10;;;1.70;99.90;;;;;;5056229;28;20664;-65
2020/12/26 02:06:18;;;;;;;19.27;16.00;;;1.70;99.90;;;;;;5064966;28;21148;-65
2020/12/26 02:09:05;;;;;;;21.13;16.10;;;1.70;99.90;;;;;;5075694;28;20984;-65
2020/12/26 02:11:49;;;;;;;18.53;15.57;;;1.70;99.90;;;;;;5060915;28;21559;-65
2020/12/26 02:14:34;;;;;;;22.70;16.77;;;1.90;99.90;;;;;;5085272;28;20682;-65
2020/12/26 02:17:30;;;;;;;19.03;15.73;;;1.90;99.90;;;;;;5069115;28;20624;-65
2020/12/26 02:20:15;;;;;;;19.97;14.90;;;1.90;99.90;;;;;;5074827;28;20754;-65
2020/12/26 02:23:02;;;;;;;21.30;16.20;;;1.90;99.90;;;;;;5069375;28;20678;-65
2020/12/26 02:25:46;;;;;;;17.17;14.87;;;1.90;99.90;;;;;;5073683;28;20660;-65
2020/12/26 02:28:31;;;;;;;19.87;15.73;;;1.90;99.90;;;;;;5062529;28;20632;-65
2020/12/26 02:31:15;;;;;;;17.03;14.10;;;1.90;99.90;;;;;;5063137;28;20714;-65
2020/12/26 02:34:04;;;;;;;17.77;14.50;;;1.80;99.90;;;;;;5094903;28;20713;-65
2020/12/26 02:36:48;;;;;;;18.33;14.83;;;1.70;99.90;;;;;;5065240;28;20621;-65
2020/12/26 02:39:33;;;;;;;16.47;14.73;;;1.60;99.90;;;;;;5071562;28;20785;-65
2020/12/26 02:42:17;;;;;;;17.30;14.23;;;1.50;99.90;;;;;;5082048;28;20643;-65
2020/12/26 02:45:02;;;;;;;18.03;14.80;;;1.50;99.90;;;;;;5092809;28;20671;-65
2020/12/26 02:47:47;;;;;;;16.77;13.63;;;1.50;99.90;;;;;;5086875;28;20708;-65
2020/12/26 02:50:32;;;;;;;16.50;14.80;;;1.60;99.90;;;;;;5075720;28;20615;-64
2020/12/26 02:53:17;;;;;;;15.63;14.07;;;1.60;99.90;;;;;;5078695;28;20794;-65
2020/12/26 02:56:03;;;;;;;17.33;14.37;;;1.60;99.90;;;;;;5072565;28;20865;-65
2020/12/26 02:58:47;;;;;;;16.43;14.73;;;1.60;99.90;;;;;;5086835;28;21197;-65
2020/12/26 03:01:33;;;;;;;18.87;14.93;;;1.50;99.90;;;;;;5062047;28;20632;-65
2020/12/26 03:04:17;;;;;;;16.43;14.77;;;1.50;99.90;;;;;;5081427;28;20599;-65
2020/12/26 03:07:02;;;;;;;16.40;14.53;;;1.40;99.90;;;;;;5079277;28;20623;-65
2020/12/26 03:09:46;;;;;;;19.07;16.97;;;1.50;99.90;;;;;;5056341;28;20632;-65
2020/12/26 03:12:31;;;;;;;17.97;14.87;;;1.50;99.90;;;;;;5094326;28;20736;-65
2020/12/26 03:15:15;;;;;;;17.43;14.20;;;1.50;99.90;;;;;;5094525;22;20782;-65
2020/12/26 03:18:00;;;;;;;15.90;13.67;;;1.40;99.90;;;;;;4932633;28;20732;-65
2020/12/26 03:20:45;;;;;;;16.30;14.67;;;1.50;99.90;;;;;;4934839;28;21003;-65
2020/12/26 03:23:31;;;;;;;15.93;13.80;;;1.50;99.90;;;;;;4940294;28;20633;-66
2020/12/26 03:26:15;;;;;;;16.63;14.43;;;1.50;99.90;;;;;;4944491;28;20665;-66
2020/12/26 03:29:00;;;;;;;16.40;13.80;;;1.60;99.90;;;;;;4956209;28;20795;-65
2020/12/26 03:31:44;;;;;;;20.90;16.17;;;1.60;99.90;;;;;;5009749;28;20968;-66
2020/12/26 03:34:29;;;;;;;17.40;14.60;;;1.60;99.90;;;;;;4949928;28;20615;-65
2020/12/26 03:37:13;;;;;;;16.40;14.03;;;1.70;99.90;;;;;;4945162;28;20663;-66
2020/12/26 03:39:58;;;;;;;16.00;14.30;;;1.70;99.90;;;;;;4963734;28;20613;-65
2020/12/26 03:42:42;;;;;;;18.57;15.23;;;1.70;99.90;;;;;;4940591;28;21236;-65
2020/12/26 03:45:26;;;;;;;15.70;14.00;;;1.60;99.90;;;;;;4953869;28;20640;-66
2020/12/26 03:48:11;;;;;;;17.30;14.10;;;1.70;99.90;;;;;;4956192;28;20609;-65
2020/12/26 03:50:55;;;;;;;15.80;14.10;;;1.70;99.90;;;;;;4947345;28;20996;-65
2020/12/26 03:53:40;;;;;;;18.07;14.90;;;1.60;99.90;;;;;;4944956;28;21046;-66
2020/12/26 03:56:27;;;;;;;15.50;13.97;;;1.70;99.90;;;;;;4950890;28;20745;-66
2020/12/26 03:59:11;;;;;;;18.33;13.77;;;1.80;99.90;;;;;;4942605;28;21028;-66
2020/12/26 04:01:56;;;;;;;16.23;14.27;;;1.80;99.90;;;;;;4945358;28;20645;-66
2020/12/26 04:04:40;;;;;;;21.40;15.07;;;1.80;99.90;;;;;;4951397;28;21186;-66
2020/12/26 04:07:25;;;;;;;16.80;14.80;;;2.00;99.90;;;;;;4950300;28;20590;-63
2020/12/26 04:10:09;;;;;;;16.50;13.80;;;1.90;99.90;;;;;;4947421;28;20661;-64
2020/12/26 04:12:53;;;;;;;16.83;14.47;;;1.90;99.90;;;;;;4950752;28;20700;-64
2020/12/26 04:15:37;;;;;;;15.63;13.80;;;2.00;99.90;;;;;;4950427;28;20730;-63
2020/12/26 04:18:22;;;;;;;18.53;14.27;;;2.10;99.90;;;;;;4943859;28;20932;-63
2020/12/26 04:21:07;;;;;;;16.17;13.90;;;2.00;99.90;;;;;;4957704;28;20696;-64
2020/12/26 04:23:53;;;;;;;18.47;14.80;;;2.00;99.90;;;;;;4970734;28;20670;-63
2020/12/26 04:26:38;;;;;;;15.67;13.97;;;2.00;99.90;;;;;;4960146;28;20672;-64
2020/12/26 04:29:22;;;;;;;17.27;14.27;;;2.00;99.90;;;;;;4952790;28;20641;-64
2020/12/26 04:32:06;;;;;;;16.10;13.83;;;2.10;99.90;;;;;;4958412;28;20661;-64
2020/12/26 04:34:51;;;;;;;17.70;13.57;;;2.00;99.90;;;;;;4955018;28;21040;-65
2020/12/26 04:37:35;;;;;;;15.30;13.70;;;2.10;99.90;;;;;;4950914;28;20740;-64
2020/12/26 04:40:21;;;;;;;16.10;13.67;;;2.10;99.90;;;;;;4954989;28;20668;-64
2020/12/26 04:43:06;;;;;;;20.10;14.93;;;2.20;99.90;;;;;;4936219;28;20641;-64
2020/12/26 04:45:54;;;;;;;17.47;14.27;;;2.20;99.90;;;;;;4950804;28;20645;-64
2020/12/26 04:48:46;;;;;;;19.00;14.20;;;2.30;99.90;;;;;;4946874;28;20591;-64
2020/12/26 04:51:38;;;;;;;19.07;14.10;;;2.50;99.90;;;;;;4938407;28;20689;-64
2020/12/26 04:54:25;;;;;;;16.57;13.37;;;2.40;99.90;;;;;;4933955;28;20585;-64
2020/12/26 04:57:11;;;;;;;17.10;13.83;;;2.50;99.90;;;;;;4949022;28;20738;-64
2020/12/26 04:59:55;;;;;;;18.37;13.83;;;2.40;99.90;;;;;;4941093;28;20610;-64
2020/12/26 05:02:48;;;;;;;14.67;13.17;;;2.40;99.90;;;;;;4954194;28;20653;-66
2020/12/26 05:05:38;;;;;;;17.03;12.27;;;2.40;99.90;;;;;;4953118;28;21227;-64
2020/12/26 05:08:22;;;;;;;16.43;13.40;;;2.40;99.90;;;;;;4947176;28;20638;-64
2020/12/26 05:11:07;;;;;;;17.90;13.30;;;2.40;99.90;;;;;;4950436;28;20657;-64
2020/12/26 05:13:51;;;;;;;16.70;13.50;;;2.40;99.90;;;;;;4946955;28;20728;-64
2020/12/26 05:16:36;;;;;;;16.80;12.83;;;2.30;99.90;;;;;;4940780;28;20758;-64
2020/12/26 05:19:21;;;;;;;17.07;13.80;;;2.30;99.90;;;;;;4954573;28;20595;-64
2020/12/26 05:22:05;;;;;;;14.30;12.57;;;2.40;99.90;;;;;;4940492;28;20649;-64
2020/12/26 05:24:53;;;;;;;18.20;13.00;;;2.40;99.90;;;;;;4950794;28;20571;-64
2020/12/26 05:27:37;;;;;;;14.47;12.60;;;2.50;99.90;;;;;;4959280;28;20636;-64
2020/12/26 05:30:22;;;;;;;17.80;12.97;;;2.50;99.90;;;;;;4951991;28;20961;-64
2020/12/26 05:33:09;;;;;;;15.30;12.63;;;2.60;99.90;;;;;;4942611;28;20684;-65
2020/12/26 05:36:01;;;;;;;14.60;12.50;;;2.50;99.90;;;;;;4951769;28;20676;-65
2020/12/26 05:38:50;;;;;;;15.37;12.73;;;2.50;99.90;;;;;;4971490;28;20628;-65
2020/12/26 05:41:41;;;;;;;15.10;12.90;;;2.60;99.90;;;;;;4947037;28;20657;-64
2020/12/26 05:44:29;;;;;;;14.20;12.00;;;2.70;99.90;;;;;;4948323;28;20601;-65
2020/12/26 05:47:14;;;;;;;15.77;13.23;;;2.70;99.90;;;;;;4950823;28;20586;-65
2020/12/26 05:49:58;;;;;;;17.33;13.70;;;2.60;99.90;;;;;;4940375;28;22067;-65
2020/12/26 05:52:53;;;;;;;14.40;12.03;;;2.70;99.90;;;;;;4951115;28;20653;-65
2020/12/26 05:55:43;;;;;;;14.47;12.97;;;2.80;99.90;;;;;;4949884;28;21251;-65
2020/12/26 05:58:28;;;;;;;17.90;12.80;;;2.70;99.90;;;;;;4969921;28;20916;-65
2020/12/26 06:01:21;;;;;;;15.23;12.70;;;2.70;99.90;;;;;;4943338;28;20640;-65
2020/12/26 06:04:09;;;;;;;16.70;13.57;;;2.70;99.90;;;;;;4955855;28;20535;-65
2020/12/26 06:06:56;;;;;;;16.90;13.27;;;2.80;99.90;;;;;;4946890;28;20691;-65
2020/12/26 06:09:46;;;;;;;16.60;13.37;;;2.80;99.90;;;;;;4968330;28;20614;-65
2020/12/26 06:12:30;;;;;;;14.50;12.30;;;2.80;99.90;;;;;;4938969;28;20634;-65
2020/12/26 06:15:25;;;;;;;13.60;12.20;;;2.80;99.90;;;;;;4941598;28;20657;-65
2020/12/26 06:18:12;;;;;;;13.27;11.97;;;2.90;99.90;;;;;;4947361;28;20610;-65
2020/12/26 06:20:56;;;;;;;17.07;11.90;;;2.90;99.90;;;;;;4953580;28;21212;-65
2020/12/26 06:23:42;;;;;;;16.50;12.67;;;2.90;99.90;;;;;;4950931;29;20574;-65
2020/12/26 06:26:34;;;;;;;14.80;12.67;;;2.90;99.90;;;;;;4941968;28;20712;-65
2020/12/26 06:29:23;;;;;;;13.87;12.13;;;3.00;99.90;;;;;;4959739;28;20596;-65
2020/12/26 06:32:10;;;;;;;15.97;12.30;;;3.00;99.90;;;;;;4943852;28;20633;-65
2020/12/26 06:34:54;;;;;;;14.90;12.30;;;3.00;99.90;;;;;;4951589;28;20715;-65
2020/12/26 06:37:39;;;;;;;14.17;11.67;;;3.10;99.90;;;;;;4958477;28;21172;-65
2020/12/26 06:40:23;;;;;;;14.90;12.50;;;3.00;99.90;;;;;;4950864;28;20625;-65
2020/12/26 06:43:08;;;;;;;13.60;12.20;;;3.00;99.90;;;;;;4949368;28;20661;-65
2020/12/26 06:45:52;;;;;;;14.80;13.33;;;3.00;99.90;;;;;;4951447;28;21151;-65
2020/12/26 06:48:37;;;;;;;17.63;11.90;;;3.00;99.90;;;;;;4945499;28;20676;-65
2020/12/26 06:51:22;;;;;;;13.60;12.20;;;3.00;99.90;;;;;;4933464;28;20654;-65
2020/12/26 06:54:12;;;;;;;15.00;11.20;;;3.00;99.90;;;;;;4947972;28;20597;-65
2020/12/26 06:56:57;;;;;;;12.43;11.00;;;3.10;99.90;;;;;;4956804;28;20661;-65
2020/12/26 06:59:41;;;;;;;14.80;11.47;;;3.10;99.90;;;;;;4965785;28;20703;-65
2020/12/26 07:02:26;;;;;;;12.60;11.10;;;3.10;99.90;;;;;;4941095;28;20723;-65
2020/12/26 07:05:37;;;;;;;10.97;9.80;;;3.10;99.90;;;;;;4924833;28;20657;-65
2020/12/26 07:08:24;;;;;;;12.23;10.73;;;3.20;99.90;;;;;;4947776;28;20589;-65
2020/12/26 07:11:24;;;;;;;13.50;10.47;;;3.20;99.90;;;;;;4973065;28;20652;-64
2020/12/26 07:14:27;;;;;;;15.33;11.13;;;3.20;99.90;;;;;;4947094;28;20661;-65
2020/12/26 07:17:15;;;;;;;11.13;10.03;;;3.20;99.90;;;;;;4958373;28;20679;-65
2020/12/26 07:19:59;;;;;;;12.90;10.80;;;3.20;99.90;;;;;;5001731;28;20592;-64
2020/12/26 07:22:43;;;;;;;11.07;10.00;;;3.20;99.90;;;;;;4948196;28;20788;-65
2020/12/26 07:25:31;;;;;;;10.37;9.30;;;3.20;99.90;;;;;;4959063;28;20829;-65
2020/12/26 07:28:16;;;;;;;11.53;10.00;;;3.20;99.90;;;;;;4946091;28;20613;-65
2020/12/26 07:31:27;;;;;;;11.80;9.30;;;3.30;99.90;;;;;;4952912;28;20631;-64
2020/12/26 07:34:35;;;;;;;10.80;9.30;;;3.30;99.90;;;;;;4965285;28;21212;-65
2020/12/26 07:37:19;;;;;;;10.10;9.10;;;3.20;99.90;;;;;;4955061;28;21044;-65
2020/12/26 07:40:04;;;;;;;10.93;9.20;;;3.20;99.90;;;;;;4964028;28;20601;-65
2020/12/26 07:42:50;;;;;;;9.57;8.67;;;3.30;99.90;;;;;;4947100;28;21309;-66
2020/12/26 07:45:35;;;;;;;11.43;8.97;;;3.30;99.90;;;;;;4981313;28;20698;-65
2020/12/26 07:48:21;;;;;;;10.90;8.73;;;3.30;99.90;;;;;;4953769;28;20601;-65
2020/12/26 07:51:12;;;;;;;10.20;8.23;;;3.40;99.90;;;;;;4944738;28;20743;-65
2020/12/26 07:53:59;;;;;;;11.73;8.90;;;3.40;99.90;;;;;;4968754;28;20566;-65
2020/12/26 07:56:45;;;;;;;10.80;8.87;;;3.50;99.90;;;;;;4973878;28;20664;-65
2020/12/26 07:59:29;;;;;;;12.10;8.90;;;3.50;99.90;;;;;;5017731;28;20747;-64
2020/12/26 08:02:14;;;;;;;12.17;8.23;;;3.50;99.90;;;;;;4954089;28;20629;-65
2020/12/26 08:04:58;;;;;;;9.37;8.10;;;3.50;99.90;;;;;;4952356;28;20950;-65
2020/12/26 08:07:43;;;;;;;9.00;8.10;;;3.50;99.90;;;;;;4950071;28;20808;-69
2020/12/26 08:10:29;;;;;;;8.50;7.80;;;3.50;99.90;;;;;;4968939;28;20624;-65
2020/12/26 08:13:14;;;;;;;10.07;7.70;;;3.60;99.90;;;;;;4955234;28;20780;-64
2020/12/26 08:16:04;;;;;;;9.03;6.70;;;3.70;99.90;;;;;;5022450;28;21340;-74
2020/12/26 08:18:49;;;;;;;7.73;7.03;;;3.60;99.90;;;;;;5020481;28;20994;-72
2020/12/26 08:21:34;;;;;;;8.03;6.77;;;3.70;99.90;;;;;;4953866;28;20695;-72
2020/12/26 08:24:20;;;;;;;8.20;7.40;;;3.70;99.90;;;;;;4945301;28;20673;-71
2020/12/26 08:27:06;;;;;;;8.97;8.07;;;3.70;99.90;;;;;;4962150;28;20707;-73
2020/12/26 08:29:51;;;;;;;8.80;7.90;;;3.80;99.90;;;;;;4954264;28;20657;-67
2020/12/26 08:32:51;;;;;;;7.50;6.80;;;3.80;99.90;;;;;;4942719;28;21043;-67
2020/12/26 08:35:55;;;;;;;8.20;7.20;;;3.80;99.90;;;;;;4945075;28;20645;-64
2020/12/26 08:38:48;;;;;;;8.20;7.10;;;3.70;99.90;;;;;;4957856;28;20621;-65
2020/12/26 08:41:33;;;;;;;9.53;5.73;;;3.80;99.90;;;;;;4951434;28;20634;-65
2020/12/26 08:44:19;;;;;;;7.57;6.07;;;3.90;99.90;;;;;;4959459;28;20989;-65
2020/12/26 08:47:06;;;;;;;6.67;6.00;;;3.80;99.90;;;;;;4953673;28;21164;-67
2020/12/26 08:49:51;;;;;;;6.60;5.90;;;3.80;99.90;;;;;;4971177;28;20585;-69
2020/12/26 08:52:37;;;;;;;6.20;5.60;;;3.80;99.90;;;;;;4954897;28;20744;-68
2020/12/26 08:55:22;;;;;;;6.90;5.83;;;3.80;99.90;;;;;;4951019;28;20672;-68
2020/12/26 08:58:07;;;;;;;6.67;6.03;;;3.80;99.90;;;;;;4951946;28;20661;-68
2020/12/26 09:00:56;;;;;;;7.67;5.97;;;3.90;99.90;;;;;;4947114;28;20598;-68
2020/12/26 09:03:56;;;;;;;6.57;5.87;;;3.80;99.90;;;;;;4958773;28;20607;-68
2020/12/26 09:06:42;;;;;;;7.83;5.53;;;3.90;99.90;;;;;;4968205;28;20657;-68
2020/12/26 09:09:29;;;;;;;8.93;7.13;;;3.80;99.90;;;;;;4963379;28;21075;-68
2020/12/26 09:12:15;;;;;;;7.40;5.87;;;3.80;99.90;;;;;;5020329;28;20771;-68
2020/12/26 09:15:00;;;;;;;9.10;6.20;;;3.80;99.90;;;;;;4979131;28;20592;-68
2020/12/26 09:17:44;;;;;;;8.10;5.93;;;3.80;99.90;;;;;;5017764;22;20695;-68
2020/12/26 09:20:29;;;;;;;7.53;5.50;;;3.80;99.90;;;;;;5018894;28;20991;-68
2020/12/26 09:23:13;;;;;;;8.73;5.13;;;3.90;99.90;;;;;;5011566;28;20647;-67
2020/12/26 09:26:08;;;;;;;6.33;5.67;;;3.90;99.90;;;;;;5007935;28;20587;-68
2020/12/26 09:28:55;;;;;;;6.80;6.20;;;3.90;99.90;;;;;;5008870;28;20743;-68
2020/12/26 09:31:40;;;;;;;12.37;6.30;;;3.90;99.90;;;;;;4996578;28;21065;-68
2020/12/26 09:34:25;;;;;;;6.23;5.63;;;3.90;99.90;;;;;;5006632;28;21249;-68
2020/12/26 09:37:10;;;;;;;7.00;6.30;;;3.80;99.90;;;;;;4998035;28;20743;-68
2020/12/26 09:39:55;;;;;;;9.90;6.13;;;3.90;99.90;;;;;;5008470;28;20620;-68
2020/12/26 09:42:40;;;;;;;9.13;6.07;;;3.90;99.90;;;;;;5000998;28;20643;-67
2020/12/26 09:45:25;;;;;;;7.27;6.57;;;3.90;99.90;;;;;;5003437;28;20778;-66
2020/12/26 09:48:09;;;;;;;7.57;6.00;;;3.90;99.90;;;;;;5000342;28;20655;-68
2020/12/26 09:50:54;;;;;;;6.70;6.10;;;3.90;99.90;;;;;;5000016;28;20588;-68
2020/12/26 09:53:38;;;;;;;7.60;6.80;;;4.00;99.90;;;;;;5004223;28;21182;-68
2020/12/26 09:56:23;;;;;;;8.47;6.90;;;3.90;99.90;;;;;;5002708;28;20963;-68
2020/12/26 09:59:07;;;;;;;10.43;7.23;;;3.90;99.90;;;;;;5004581;28;21174;-68
2020/12/26 10:01:52;;;;;;;7.67;6.93;;;3.80;99.90;;;;;;4998044;28;20749;-66
2020/12/26 10:04:36;;;;;;;8.47;6.40;;;3.80;99.90;;;;;;4996705;28;20698;-65
2020/12/26 10:07:20;;;;;;;8.70;6.70;;;3.90;99.90;;;;;;5008937;28;20642;-66
2020/12/26 10:10:07;;;;;;;8.23;6.10;;;4.00;99.90;;;;;;5006474;28;20599;-66
2020/12/26 10:12:52;;;;;;;8.40;6.23;;;4.10;99.90;;;;;;4993672;28;20643;-66
2020/12/26 10:15:36;;;;;;;6.63;5.60;;;4.10;99.90;;;;;;4988558;28;21166;-65
2020/12/26 10:18:21;;;;;;;7.37;6.60;;;4.10;99.90;;;;;;4995811;28;21020;-68
2020/12/26 10:21:05;;;;;;;7.40;6.57;;;4.20;99.90;;;;;;4993485;28;20659;-68
2020/12/26 10:23:50;;;;;;;7.60;6.90;;;4.10;99.90;;;;;;5013119;28;20635;-66
2020/12/26 10:26:34;;;;;;;8.73;7.43;;;4.20;99.90;;;;;;4995327;28;20674;-65
2020/12/26 10:29:18;;;;;;;6.57;6.00;;;4.20;99.90;;;;;;4999691;28;20719;-69
2020/12/26 10:32:04;;;;;;;7.70;7.00;;;4.20;99.90;;;;;;4996005;28;20712;-66
2020/12/26 10:34:48;;;;;;;6.57;6.00;;;4.20;99.90;;;;;;4999825;28;21239;-69
2020/12/26 10:37:33;;;;;;;7.10;6.40;;;4.30;99.90;;;;;;4991080;28;20674;-69
2020/12/26 10:40:17;;;;;;;7.60;5.90;;;4.30;99.90;;;;;;5003856;28;20619;-68
2020/12/26 10:43:02;;;;;;;7.40;6.30;;;4.30;99.90;;;;;;5004221;28;20643;-68
2020/12/26 10:45:46;;;;;;;10.90;6.83;;;4.30;99.90;;;;;;5003088;28;20758;-66
2020/12/26 10:48:31;;;;;;;7.83;6.20;;;4.30;99.90;;;;;;5008469;28;20587;-66
2020/12/26 10:51:15;;;;;;;7.50;6.70;;;4.30;99.90;;;;;;4996472;28;21360;-65
2020/12/26 10:54:00;;;;;;;9.57;6.43;;;4.30;99.90;;;;;;5013761;28;20595;-65
2020/12/26 10:56:46;;;;;;;6.63;5.50;;;4.30;99.90;;;;;;5011593;28;21025;-66
2020/12/26 10:59:30;;;;;;;6.60;6.00;;;4.30;99.90;;;;;;5009957;28;20593;-66
2020/12/26 11:02:15;;;;;;;6.97;6.30;;;4.30;99.90;;;;;;5003014;28;21276;-68
2020/12/26 11:05:00;;;;;;;7.83;6.40;;;4.20;99.90;;;;;;5011426;28;20631;-68
2020/12/26 11:07:44;;;;;;;6.70;6.10;;;4.30;99.90;;;;;;5008396;28;20664;-68
2020/12/26 11:10:28;;;;;;;7.90;6.40;;;4.30;99.90;;;;;;5021041;28;20675;-69
2020/12/26 11:13:13;;;;;;;7.03;6.47;;;4.30;99.90;;;;;;5020730;28;20695;-68
2020/12/26 11:15:57;;;;;;;7.07;6.37;;;4.30;99.90;;;;;;5014908;28;20581;-68
2020/12/26 11:18:43;;;;;;;7.20;6.40;;;4.40;99.90;;;;;;5005241;28;20686;-65
2020/12/26 11:21:28;;;;;;;6.73;6.03;;;4.50;99.90;;;;;;4992284;28;21209;-66
2020/12/26 11:24:13;;;;;;;7.87;6.57;;;4.40;99.90;;;;;;5021651;28;20958;-66
2020/12/26 11:26:57;;;;;;;7.13;6.53;;;4.40;99.90;;;;;;5003921;28;20685;-66
2020/12/26 11:29:42;;;;;;;7.77;6.60;;;4.50;99.90;;;;;;4999500;28;20584;-65
2020/12/26 11:32:26;;;;;;;8.30;7.07;;;4.50;99.90;;;;;;5000057;28;20706;-68
2020/12/26 11:35:11;;;;;;;7.87;7.13;;;4.60;99.90;;;;;;5008362;28;20655;-66
2020/12/26 11:37:55;;;;;;;9.03;7.20;;;4.50;99.90;;;;;;5004011;28;20663;-67
2020/12/26 11:40:39;;;;;;;7.87;7.00;;;4.60;99.90;;;;;;5006049;28;20735;-68
2020/12/26 11:43:24;;;;;;;8.53;7.67;;;4.60;99.90;;;;;;4999172;28;20655;-67
2020/12/26 11:46:09;;;;;;;7.60;6.93;;;4.70;99.90;;;;;;5003788;28;20607;-66
2020/12/26 11:48:54;;;;;;;9.03;8.00;;;4.70;99.90;;;;;;5012651;28;20650;-66
2020/12/26 11:51:38;;;;;;;9.13;7.70;;;4.70;99.90;;;;;;5007938;28;21246;-66
2020/12/26 11:54:23;;;;;;;9.60;8.70;;;4.70;99.90;;;;;;5013363;28;20603;-66
2020/12/26 11:57:08;;;;;;;9.63;8.63;;;4.70;99.90;;;;;;5011228;28;21151;-67
2020/12/26 11:59:52;;;;;;;9.50;7.97;;;4.70;99.90;;;;;;5000808;28;20926;-68
2020/12/26 12:02:37;;;;;;;10.30;9.13;;;4.70;99.90;;;;;;5017482;28;20636;-66
2020/12/26 12:05:21;;;;;;;10.50;8.87;;;4.70;99.90;;;;;;5007973;28;20671;-67
2020/12/26 12:08:06;;;;;;;11.13;9.63;;;4.70;99.90;;;;;;5002630;28;20678;-67
2020/12/26 12:10:50;;;;;;;10.70;9.13;;;4.70;99.90;;;;;;4995647;28;20751;-68
2020/12/26 12:13:35;;;;;;;10.33;9.23;;;4.80;99.90;;;;;;5004612;28;20623;-66
2020/12/26 12:16:20;;;;;;;11.37;10.00;;;4.80;99.90;;;;;;5004806;28;20682;-66
2020/12/26 12:19:04;;;;;;;10.30;9.30;;;4.80;99.90;;;;;;4998985;28;20658;-66
2020/12/26 12:21:48;;;;;;;10.93;9.23;;;4.90;99.90;;;;;;5005812;28;20635;-66
2020/12/26 12:24:33;;;;;;;11.20;9.53;;;4.90;99.90;;;;;;4992670;28;20592;-67
2020/12/26 12:27:17;;;;;;;10.83;9.70;;;4.90;99.90;;;;;;5002289;28;20655;-67
2020/12/26 12:30:02;;;;;;;10.67;9.60;;;5.00;99.90;;;;;;5008007;28;20662;-67
2020/12/26 12:32:47;;;;;;;10.90;9.80;;;5.00;99.90;;;;;;4996929;28;20639;-66
2020/12/26 12:35:31;;;;;;;11.73;9.87;;;5.00;99.90;;;;;;4999820;28;20723;-67
2020/12/26 12:38:16;;;;;;;10.73;9.73;;;5.10;99.90;;;;;;5006810;28;20751;-68
2020/12/26 12:41:00;;;;;;;11.00;9.90;;;5.10;99.90;;;;;;5004851;28;20603;-67
2020/12/26 12:43:45;;;;;;;11.47;10.27;;;5.20;99.90;;;;;;5022072;28;20568;-68
2020/12/26 12:46:29;;;;;;;11.43;10.23;;;5.20;99.90;;;;;;5008864;28;20627;-70
2020/12/26 12:49:14;;;;;;;11.43;9.60;;;5.20;99.90;;;;;;5015497;28;20572;-67
2020/12/26 12:52:03;;;;;;;11.63;10.03;;;5.00;99.90;;;;;;5006859;28;21237;-69
2020/12/26 12:54:48;;;;;;;14.47;9.50;;;5.00;99.90;;;;;;5010983;28;20607;-69
2020/12/26 12:57:32;;;;;;;10.70;9.20;;;5.10;99.90;;;;;;5004737;28;20670;-69
2020/12/26 13:00:17;;;;;;;11.33;10.10;;;5.20;99.90;;;;;;5002718;28;20975;-68
2020/12/26 13:03:02;;;;;;;14.77;9.60;;;5.20;99.90;;;;;;5015459;28;20724;-69
2020/12/26 13:05:47;;;;;;;10.73;9.23;;;5.20;99.90;;;;;;5000464;28;20679;-68
2020/12/26 13:08:31;;;;;;;10.60;9.50;;;5.20;99.90;;;;;;5002859;28;20659;-69
2020/12/26 13:11:16;;;;;;;10.97;9.47;;;5.30;99.90;;;;;;4997602;28;20677;-68
2020/12/26 13:14:01;;;;;;;11.13;9.93;;;5.30;99.90;;;;;;5009293;28;20607;-68
2020/12/26 13:16:45;;;;;;;10.70;9.70;;;5.30;99.90;;;;;;5003954;28;20753;-68
2020/12/26 13:19:30;;;;;;;10.70;9.57;;;5.30;99.90;;;;;;4997418;28;21158;-68
2020/12/26 13:22:15;;;;;;;9.47;8.57;;;5.30;99.90;;;;;;5000242;28;21341;-68
2020/12/26 13:24:59;;;;;;;10.70;9.77;;;5.30;99.90;;;;;;4999073;28;20595;-68
2020/12/26 13:27:44;;;;;;;10.27;9.27;;;5.30;99.90;;;;;;5003943;28;20822;-68
2020/12/26 13:30:31;;;;;;;10.20;9.30;;;5.30;99.90;;;;;;5009068;28;20655;-67
2020/12/26 13:33:16;;;;;;;10.50;9.40;;;5.40;99.90;;;;;;5000052;28;20640;-68
2020/12/26 13:36:00;;;;;;;11.20;10.10;;;5.40;99.90;;;;;;4999652;28;21219;-68
2020/12/26 13:38:45;;;;;;;11.07;10.07;;;5.30;99.90;;;;;;5001204;28;21004;-68
2020/12/26 13:41:32;;;;;;;12.97;9.80;;;5.40;99.90;;;;;;4997552;28;21285;-68
2020/12/26 13:44:17;;;;;;;10.60;9.60;;;5.50;99.90;;;;;;4996662;28;20650;-68
2020/12/26 13:47:01;;;;;;;10.30;9.40;;;5.50;99.90;;;;;;4997777;28;20731;-69
2020/12/26 13:49:48;;;;;;;10.20;9.30;;;5.50;99.90;;;;;;4995924;28;20737;-69
2020/12/26 13:52:32;;;;;;;11.33;10.00;;;5.50;99.90;;;;;;5001465;28;20697;-68
2020/12/26 13:55:17;;;;;;;10.60;9.57;;;5.40;99.90;;;;;;5004292;28;21221;-68
2020/12/26 13:58:01;;;;;;;11.37;10.27;;;5.30;99.90;;;;;;5002406;28;20679;-68
2020/12/26 14:00:45;;;;;;;14.33;11.90;;;5.40;99.90;;;;;;4996433;28;20660;-69
2020/12/26 14:03:30;;;;;;;12.00;10.90;;;5.40;99.90;;;;;;5002657;28;20801;-68
2020/12/26 14:06:15;;;;;;;12.20;11.00;;;5.50;99.90;;;;;;5003736;28;20654;-68
2020/12/26 14:09:00;;;;;;;12.63;11.37;;;5.60;99.90;;;;;;4992522;28;20674;-68
2020/12/26 14:11:46;;;;;;;12.93;11.70;;;5.60;99.90;;;;;;4988862;28;21297;-73
2020/12/26 14:14:31;;;;;;;13.23;11.27;;;5.50;99.90;;;;;;5000735;28;20635;-72
2020/12/26 14:17:15;;;;;;;14.03;11.27;;;5.50;99.90;;;;;;5002609;28;20775;-73
2020/12/26 14:20:01;;;;;;;12.77;11.47;;;5.50;99.90;;;;;;5000268;28;20754;-73
2020/12/26 14:22:45;;;;;;;13.03;11.80;;;5.50;99.90;;;;;;5004722;28;20987;-73